createdAt,value
2019-06-27T00:00:54.092Z,3.70
2019-06-27T00:03:23.714Z,3.10
2019-06-27T00:05:53.234Z,3.97
2019-06-27T00:08:22.816Z,3.55
2019-06-27T00:10:52.374Z,2.73
2019-06-27T00:13:21.912Z,3.40
2019-06-27T00:15:51.416Z,3.07
2019-06-27T00:18:21.021Z,2.98
2019-06-27T00:20:50.508Z,3.60
2019-06-27T00:23:20.042Z,3.07
2019-06-27T00:25:49.651Z,2.90
2019-06-27T00:28:19.199Z,2.70
2019-06-27T00:30:48.840Z,2.93
2019-06-27T00:33:18.365Z,3.40
2019-06-27T00:35:48.849Z,2.57
2019-06-27T00:38:18.425Z,3.13
2019-06-27T00:40:47.945Z,2.70
2019-06-27T00:43:17.432Z,3.07
2019-06-27T00:45:47.371Z,2.90
2019-06-27T00:48:17.204Z,3.43
2019-06-27T00:50:47.302Z,2.90
2019-06-27T00:53:17.293Z,2.35
2019-06-27T00:55:47.255Z,3.83
2019-06-27T00:58:17.280Z,2.75
2019-06-27T01:00:47.258Z,3.50
2019-06-27T01:03:17.245Z,2.60
2019-06-27T01:05:47.833Z,2.90
2019-06-27T01:08:17.332Z,2.47
2019-06-27T01:10:47.760Z,2.92
2019-06-27T01:13:17.327Z,3.00
2019-06-27T01:15:47.446Z,2.85
2019-06-27T01:18:17.298Z,2.90
2019-06-27T01:20:47.405Z,2.30
2019-06-27T01:23:17.427Z,3.58
2019-06-27T01:25:48.069Z,2.93
2019-06-27T01:28:17.560Z,2.90
2019-06-27T01:30:47.482Z,2.75
2019-06-27T01:33:17.458Z,3.37
2019-06-27T01:35:47.499Z,3.20
2019-06-27T01:38:17.408Z,3.00
2019-06-27T01:40:47.441Z,3.37
2019-06-27T01:43:17.620Z,5.47
2019-06-27T01:45:51.872Z,2.77
2019-06-27T01:48:21.435Z,2.93
2019-06-27T01:50:51.005Z,3.43
2019-06-27T01:53:20.501Z,3.57
2019-06-27T01:55:50.025Z,3.23
2019-06-27T01:58:19.695Z,3.50
2019-06-27T02:00:49.309Z,4.03
2019-06-27T02:03:18.832Z,3.80
2019-06-27T02:05:48.354Z,3.10
2019-06-27T02:08:17.949Z,3.80
2019-06-27T02:10:47.596Z,3.90
2019-06-27T02:13:17.511Z,3.67
2019-06-27T02:15:47.533Z,3.45
2019-06-27T02:18:18.049Z,3.47
2019-06-27T02:20:47.585Z,3.77
2019-06-27T02:23:17.541Z,4.30
2019-06-27T02:25:47.580Z,4.12
2019-06-27T02:28:17.672Z,3.67
2019-06-27T02:30:48.049Z,3.70
2019-06-27T02:33:18.409Z,4.12
2019-06-27T02:35:47.925Z,3.60
2019-06-27T02:38:17.624Z,3.40
2019-06-27T02:40:47.617Z,3.62
2019-06-27T02:43:17.681Z,3.47
2019-06-27T02:45:47.670Z,3.60
2019-06-27T02:48:17.662Z,3.70
2019-06-27T02:50:47.642Z,3.10
2019-06-27T02:53:17.683Z,3.67
2019-06-27T02:55:47.749Z,4.22
2019-06-27T02:58:30.179Z,2.83
2019-06-27T03:00:48.900Z,3.10
2019-06-27T03:03:18.540Z,3.40
2019-06-27T03:05:48.033Z,3.80
2019-06-27T03:08:17.785Z,3.62
2019-06-27T03:10:47.732Z,3.27
2019-06-27T03:13:17.857Z,3.80
2019-06-27T03:15:47.794Z,3.60
2019-06-27T03:18:17.791Z,5.03
2019-06-27T03:20:47.851Z,3.45
2019-06-27T03:23:17.794Z,3.30
2019-06-27T03:25:47.839Z,3.47
2019-06-27T03:28:17.971Z,3.27
2019-06-27T03:30:47.873Z,3.98
2019-06-27T03:33:17.879Z,4.25
2019-06-27T03:35:47.881Z,4.33
2019-06-27T03:38:17.870Z,3.92
2019-06-27T03:40:47.928Z,3.65
2019-06-27T03:43:17.891Z,3.10
2019-06-27T03:45:47.868Z,3.72
2019-06-27T03:48:17.932Z,3.15
2019-06-27T03:50:47.881Z,3.27
2019-06-27T03:53:17.957Z,3.17
2019-06-27T03:55:47.921Z,2.77
2019-06-27T03:58:17.948Z,3.92
2019-06-27T04:00:48.016Z,2.92
2019-06-27T04:03:18.022Z,3.65
2019-06-27T04:05:48.035Z,3.30
2019-06-27T04:08:17.997Z,3.02
2019-06-27T04:10:48.472Z,3.27
2019-06-27T04:13:18.085Z,3.57
2019-06-27T04:15:47.692Z,3.47
2019-06-27T04:18:17.218Z,3.60
2019-06-27T04:20:46.729Z,2.90
2019-06-27T04:23:16.306Z,3.73
2019-06-27T04:25:45.855Z,3.07
2019-06-27T04:28:15.353Z,3.63
2019-06-27T04:30:44.901Z,3.40
2019-06-27T04:33:14.421Z,3.03
2019-06-27T04:35:43.941Z,3.13
2019-06-27T04:38:13.593Z,3.67
2019-06-27T04:40:43.085Z,3.10
2019-06-27T04:43:12.602Z,4.47
2019-06-27T04:45:42.241Z,3.10
2019-06-27T04:48:11.764Z,3.07
2019-06-27T04:50:41.250Z,3.10
2019-06-27T04:53:10.794Z,3.20
2019-06-27T04:55:40.273Z,3.30
2019-06-27T04:58:10.363Z,2.60
2019-06-27T05:00:39.916Z,2.87
2019-06-27T05:03:10.346Z,3.50
2019-06-27T05:05:41.074Z,3.70
2019-06-27T05:08:14.178Z,2.63
2019-06-27T05:10:41.890Z,3.37
2019-06-27T05:13:11.390Z,3.50
2019-06-27T05:15:40.937Z,3.60
2019-06-27T05:18:10.440Z,2.50
2019-06-27T05:20:39.973Z,3.03
2019-06-27T05:23:09.459Z,3.00
2019-06-27T05:25:39.053Z,3.10
2019-06-27T05:28:08.537Z,3.37
2019-06-27T05:30:38.167Z,2.70
2019-06-27T05:33:07.909Z,3.20
2019-06-27T05:35:37.430Z,3.20
2019-06-27T05:38:06.956Z,3.43
2019-06-27T05:40:36.502Z,3.37
2019-06-27T05:43:05.993Z,3.72
2019-06-27T05:45:35.513Z,2.60
2019-06-27T05:48:05.482Z,2.85
2019-06-27T05:50:35.061Z,2.90
2019-06-27T05:53:04.576Z,3.00
2019-06-27T05:55:35.083Z,3.10
2019-06-27T05:58:05.306Z,3.47
2019-06-27T06:00:35.582Z,2.65
2019-06-27T06:03:05.580Z,2.43
2019-06-27T06:05:35.558Z,2.58
2019-06-27T06:08:05.642Z,2.90
2019-06-27T06:10:35.760Z,3.87
2019-06-27T06:13:05.696Z,2.90
2019-06-27T06:15:35.819Z,2.72
2019-06-27T06:18:05.877Z,3.08
2019-06-27T06:20:35.739Z,2.97
2019-06-27T06:23:05.735Z,2.85
2019-06-27T06:25:35.761Z,3.22
2019-06-27T06:28:05.461Z,3.20
2019-06-27T06:30:44.573Z,3.50
2019-06-27T06:33:06.601Z,3.77
2019-06-27T06:35:36.636Z,3.45
2019-06-27T06:38:06.778Z,2.90
2019-06-27T06:40:36.792Z,3.20
2019-06-27T06:43:06.694Z,3.35
2019-06-27T06:45:36.842Z,3.77
2019-06-27T06:48:06.728Z,3.00
2019-06-27T06:50:36.773Z,2.77
2019-06-27T06:53:06.748Z,2.75
2019-06-27T06:55:36.885Z,2.90
2019-06-27T06:58:07.108Z,2.70
2019-06-27T07:00:37.165Z,2.55
2019-06-27T07:03:07.084Z,3.30
2019-06-27T07:05:37.136Z,3.60
2019-06-27T07:08:07.171Z,3.45
2019-06-27T07:10:37.211Z,2.75
2019-06-27T07:13:07.155Z,3.20
2019-06-27T07:15:37.244Z,3.50
2019-06-27T07:18:07.344Z,3.25
2019-06-27T07:20:37.148Z,2.60
2019-06-27T07:23:07.410Z,3.33
2019-06-27T07:25:37.272Z,3.02
2019-06-27T07:28:07.201Z,4.20
2019-06-27T07:30:37.395Z,2.95
2019-06-27T07:33:10.175Z,3.35
2019-06-27T07:35:38.472Z,2.70
2019-06-27T07:38:08.089Z,3.10
2019-06-27T07:40:37.668Z,2.90
2019-06-27T07:43:07.307Z,3.07
2019-06-27T07:45:37.376Z,2.87
2019-06-27T07:48:07.361Z,2.55
2019-06-27T07:50:37.315Z,2.75
2019-06-27T07:53:07.395Z,2.77
2019-06-27T07:55:37.333Z,3.22
2019-06-27T07:58:07.364Z,2.75
2019-06-27T08:00:37.410Z,2.90
2019-06-27T08:03:07.459Z,3.00
2019-06-27T08:05:37.395Z,3.30
2019-06-27T08:08:07.467Z,2.72
2019-06-27T08:10:37.470Z,3.00
2019-06-27T08:13:07.496Z,2.72
2019-06-27T08:15:37.513Z,3.20
2019-06-27T08:18:07.586Z,2.62
2019-06-27T08:20:37.580Z,3.10
2019-06-27T08:23:07.596Z,3.08
2019-06-27T08:25:37.756Z,2.90
2019-06-27T08:28:07.719Z,3.27
2019-06-27T08:30:37.733Z,2.55
2019-06-27T08:33:07.771Z,3.17
2019-06-27T08:35:37.694Z,3.77
2019-06-27T08:38:07.747Z,4.12
2019-06-27T08:40:37.718Z,4.12
2019-06-27T08:43:07.755Z,3.87
2019-06-27T08:45:37.739Z,4.37
2019-06-27T08:48:07.769Z,3.70
2019-06-27T08:50:37.814Z,3.50
2019-06-27T08:53:07.884Z,3.85
2019-06-27T08:55:37.773Z,4.90
2019-06-27T08:58:07.830Z,3.30
2019-06-27T09:00:37.810Z,4.03
2019-06-27T09:03:08.074Z,3.67
2019-06-27T09:05:37.963Z,3.25
2019-06-27T09:08:07.990Z,3.02
2019-06-27T09:10:37.900Z,3.40
2019-06-27T09:13:08.111Z,3.37
2019-06-27T09:15:37.658Z,3.30
2019-06-27T09:18:07.196Z,4.70
2019-06-27T09:20:36.763Z,3.40
2019-06-27T09:23:06.345Z,3.63
2019-06-27T09:25:36.043Z,3.23
2019-06-27T09:28:05.617Z,3.83
2019-06-27T09:30:35.139Z,3.90
2019-06-27T09:33:04.793Z,3.50
2019-06-27T09:35:34.302Z,4.40
2019-06-27T09:38:03.815Z,4.00
2019-06-27T09:40:33.433Z,4.87
2019-06-27T09:43:03.906Z,4.50
2019-06-27T09:45:33.513Z,3.53
2019-06-27T09:48:03.016Z,3.87
2019-06-27T09:50:32.551Z,3.97
2019-06-27T09:53:02.059Z,4.27
2019-06-27T09:55:31.661Z,3.43
2019-06-27T09:58:01.177Z,3.93
2019-06-27T10:00:30.795Z,3.72
2019-06-27T10:03:00.374Z,4.00
2019-06-27T10:05:29.897Z,3.67
2019-06-27T10:07:59.400Z,3.67
2019-06-27T10:10:28.906Z,4.70
2019-06-27T10:12:58.430Z,3.20
2019-06-27T10:15:27.994Z,3.98
2019-06-27T10:17:57.576Z,3.50
2019-06-27T10:20:27.094Z,4.23
2019-06-27T10:22:56.593Z,3.30
2019-06-27T10:25:26.248Z,4.30
2019-06-27T10:27:55.742Z,4.23
2019-06-27T10:30:28.432Z,4.80
2019-06-27T10:33:00.054Z,4.33
2019-06-27T10:35:29.370Z,3.97
2019-06-27T10:37:58.897Z,3.87
2019-06-27T10:40:29.749Z,4.03
2019-06-27T10:42:59.204Z,4.03
2019-06-27T10:45:28.836Z,3.90
2019-06-27T10:47:58.335Z,3.47
2019-06-27T10:50:28.069Z,2.60
2019-06-27T10:52:57.583Z,2.98
2019-06-27T10:55:27.135Z,3.03
2019-06-27T10:57:56.624Z,2.73
2019-06-27T11:00:26.241Z,4.00
2019-06-27T11:02:55.768Z,3.33
2019-06-27T11:05:25.297Z,4.33
2019-06-27T11:07:54.840Z,3.67
2019-06-27T11:10:24.375Z,4.00
2019-06-27T11:12:53.935Z,3.93
2019-06-27T11:15:23.500Z,4.43
2019-06-27T11:17:53.106Z,3.75
2019-06-27T11:20:22.696Z,4.83
2019-06-27T11:22:52.311Z,4.80
2019-06-27T11:25:21.805Z,5.13
2019-06-27T11:27:51.467Z,5.40
2019-06-27T11:30:20.986Z,5.17
2019-06-27T11:32:50.524Z,6.50
2019-06-27T11:35:20.431Z,6.97
2019-06-27T11:37:50.383Z,6.40
2019-06-27T11:40:20.452Z,6.22
2019-06-27T11:42:50.469Z,5.45
2019-06-27T11:45:20.493Z,6.58
2019-06-27T11:47:50.437Z,6.30
2019-06-27T11:50:20.415Z,6.75
2019-06-27T11:52:50.438Z,7.35
2019-06-27T11:55:20.404Z,7.05
2019-06-27T11:57:50.432Z,7.35
2019-06-27T12:00:20.689Z,6.92
2019-06-27T12:02:50.545Z,6.60
2019-06-27T12:05:20.493Z,6.65
2019-06-27T12:07:50.602Z,7.17
2019-06-27T12:10:20.564Z,6.17
2019-06-27T12:12:50.458Z,6.17
2019-06-27T12:15:20.709Z,5.80
2019-06-27T12:17:50.522Z,5.75
2019-06-27T12:20:20.528Z,5.53
2019-06-27T12:22:50.534Z,4.85
2019-06-27T12:25:20.539Z,4.30
2019-06-27T12:27:50.559Z,3.77
2019-06-27T12:30:21.614Z,4.40
2019-06-27T12:32:52.939Z,5.43
2019-06-27T12:35:22.378Z,5.07
2019-06-27T12:37:51.907Z,4.70
2019-06-27T12:40:21.491Z,4.67
2019-06-27T12:42:50.977Z,3.70
2019-06-27T12:45:21.024Z,4.53
2019-06-27T12:47:50.877Z,3.65
2019-06-27T12:50:22.062Z,3.98
2019-06-27T12:52:51.586Z,3.93
2019-06-27T12:55:21.121Z,5.40
2019-06-27T12:57:50.908Z,4.67
2019-06-27T13:00:21.368Z,4.25
2019-06-27T13:02:51.102Z,5.62
2019-06-27T13:05:20.991Z,4.10
2019-06-27T13:07:51.197Z,3.92
2019-06-27T13:10:22.884Z,4.65
2019-06-27T13:12:52.540Z,4.60
2019-06-27T13:15:22.186Z,4.58
2019-06-27T13:17:51.696Z,4.70
2019-06-27T13:20:21.494Z,4.63
2019-06-27T13:22:51.142Z,5.30
2019-06-27T13:25:21.273Z,4.50
2019-06-27T13:27:51.298Z,4.20
2019-06-27T13:30:21.273Z,4.15
2019-06-27T13:32:51.322Z,4.03
2019-06-27T13:35:21.409Z,3.75
2019-06-27T13:37:51.185Z,4.55
2019-06-27T13:40:21.492Z,3.80
2019-06-27T13:42:51.275Z,4.10
2019-06-27T13:45:21.295Z,4.00
2019-06-27T13:47:51.236Z,4.42
2019-06-27T13:50:21.385Z,4.80
2019-06-27T13:52:54.463Z,4.78
2019-06-27T13:55:24.189Z,5.10
2019-06-27T13:57:57.363Z,4.50
2019-06-27T14:00:43.817Z,5.33
2019-06-27T14:03:13.297Z,4.83
2019-06-27T14:05:42.895Z,6.30
2019-06-27T14:08:13.364Z,5.17
2019-06-27T14:10:42.849Z,4.57
2019-06-27T14:13:12.737Z,4.63
2019-06-27T14:15:42.354Z,4.50
2019-06-27T14:18:11.875Z,3.93
2019-06-27T14:20:41.419Z,4.43
2019-06-27T14:23:10.982Z,3.60
2019-06-27T14:25:40.585Z,3.10
2019-06-27T14:28:10.123Z,3.27
2019-06-27T14:30:39.600Z,3.00
2019-06-27T14:33:09.314Z,3.00
2019-06-27T14:35:38.808Z,3.23
2019-06-27T14:38:08.451Z,4.20
2019-06-27T14:40:38.045Z,3.90
2019-06-27T14:43:07.656Z,3.90
2019-06-27T14:45:37.148Z,4.30
2019-06-27T14:48:06.740Z,4.83
2019-06-27T14:50:36.553Z,4.27
2019-06-27T14:53:07.193Z,5.03
2019-06-27T14:55:36.682Z,4.57
2019-06-27T14:58:06.216Z,4.70
2019-06-27T15:00:35.793Z,5.20
2019-06-27T15:03:05.493Z,4.70
2019-06-27T15:05:35.015Z,4.90
2019-06-27T15:08:05.342Z,4.53
2019-06-27T15:10:34.928Z,3.90
2019-06-27T15:13:04.560Z,4.03
2019-06-27T15:15:34.044Z,4.30
2019-06-27T15:18:03.599Z,4.63
2019-06-27T15:20:33.168Z,3.43
2019-06-27T15:23:02.679Z,4.30
2019-06-27T15:25:32.284Z,3.60
2019-06-27T15:28:02.159Z,3.40
2019-06-27T15:30:31.656Z,3.45
2019-06-27T15:33:01.261Z,4.23
2019-06-27T15:35:33.633Z,3.20
2019-06-27T15:38:02.202Z,3.63
2019-06-27T15:40:31.737Z,3.80
2019-06-27T15:43:01.283Z,2.90
2019-06-27T15:45:30.780Z,3.50
2019-06-27T15:48:00.945Z,3.03
2019-06-27T15:50:30.485Z,3.27
2019-06-27T15:53:00.122Z,2.97
2019-06-27T15:55:29.620Z,2.83
2019-06-27T15:57:59.123Z,2.93
2019-06-27T16:00:28.758Z,2.90
2019-06-27T16:02:58.345Z,2.60
2019-06-27T16:05:28.606Z,2.12
2019-06-27T16:07:58.168Z,2.20
2019-06-27T16:10:27.763Z,2.60
2019-06-27T16:12:57.785Z,2.20
2019-06-27T16:15:27.321Z,2.53
2019-06-27T16:17:56.834Z,2.20
2019-06-27T16:20:27.520Z,2.10
2019-06-27T16:22:57.233Z,2.30
2019-06-27T16:25:26.774Z,1.77
2019-06-27T16:27:56.262Z,1.70
2019-06-27T16:30:25.863Z,2.00
2019-06-27T16:32:55.369Z,1.70
2019-06-27T16:35:24.891Z,1.80
2019-06-27T16:37:54.497Z,2.07
2019-06-27T16:40:24.584Z,2.00
2019-06-27T16:42:54.079Z,1.87
2019-06-27T16:45:23.780Z,1.90
2019-06-27T16:47:53.320Z,2.30
2019-06-27T16:50:22.987Z,2.08
2019-06-27T16:52:52.550Z,1.70
2019-06-27T16:55:23.287Z,1.80
2019-06-27T16:57:52.781Z,2.50
2019-06-27T17:00:22.590Z,2.10
2019-06-27T17:02:52.286Z,2.20
2019-06-27T17:05:21.950Z,2.37
2019-06-27T17:07:51.464Z,2.30
2019-06-27T17:10:21.509Z,2.27
2019-06-27T17:12:51.157Z,2.40
2019-06-27T17:15:20.843Z,2.43
2019-06-27T17:17:50.344Z,2.30
2019-06-27T17:20:19.945Z,2.07
2019-06-27T17:22:49.547Z,1.90
2019-06-27T17:25:19.190Z,2.00
2019-06-27T17:27:48.879Z,2.30
2019-06-27T17:30:19.509Z,2.40
2019-06-27T17:32:49.026Z,2.10
2019-06-27T17:35:18.748Z,2.23
2019-06-27T17:37:48.258Z,2.00
2019-06-27T17:40:17.942Z,2.20
2019-06-27T17:42:47.443Z,1.93
2019-06-27T17:45:17.079Z,2.15
2019-06-27T17:47:46.623Z,2.30
2019-06-27T17:50:16.281Z,2.80
2019-06-27T17:52:45.902Z,3.17
2019-06-27T17:55:15.444Z,2.73
2019-06-27T17:57:47.300Z,4.53
2019-06-27T18:00:16.433Z,2.97
2019-06-27T18:02:45.995Z,3.33
2019-06-27T18:05:18.314Z,3.53
2019-06-27T18:07:46.814Z,3.43
2019-06-27T18:10:16.556Z,3.22
2019-06-27T18:12:46.077Z,3.37
2019-06-27T18:15:15.749Z,2.90
2019-06-27T18:17:45.266Z,3.87
2019-06-27T18:20:14.911Z,3.87
2019-06-27T18:22:44.450Z,4.00
2019-06-27T18:25:14.187Z,3.70
2019-06-27T18:27:43.837Z,5.23
2019-06-27T18:30:13.486Z,3.63
2019-06-27T18:32:43.024Z,3.80
2019-06-27T18:35:13.073Z,3.40
2019-06-27T18:37:42.634Z,3.53
2019-06-27T18:40:12.600Z,3.60
2019-06-27T18:42:42.135Z,2.63
2019-06-27T18:45:11.694Z,3.00
2019-06-27T18:47:42.204Z,2.80
2019-06-27T18:50:12.017Z,2.60
2019-06-27T18:52:41.667Z,2.50
2019-06-27T18:55:11.549Z,2.90
2019-06-27T18:57:41.080Z,2.30
2019-06-27T19:00:10.865Z,2.90
2019-06-27T19:02:40.569Z,2.67
2019-06-27T19:05:10.462Z,2.50
2019-06-27T19:07:45.790Z,2.92
2019-06-27T19:10:11.525Z,3.40
2019-06-27T19:12:41.062Z,2.60
2019-06-27T19:15:11.134Z,2.30
2019-06-27T19:17:40.859Z,2.60
2019-06-27T19:20:35.786Z,2.53
2019-06-27T19:23:36.643Z,2.27
2019-06-27T19:26:06.165Z,2.63
2019-06-27T19:28:35.763Z,1.90
2019-06-27T19:31:05.315Z,2.63
2019-06-27T19:33:34.943Z,2.70
2019-06-27T19:36:04.449Z,2.70
2019-06-27T19:38:34.159Z,2.67
2019-06-27T19:41:04.982Z,2.50
2019-06-27T19:43:34.602Z,2.90
2019-06-27T19:46:04.118Z,3.03
2019-06-27T19:48:33.890Z,2.13
2019-06-27T19:51:03.522Z,2.77
2019-06-27T19:53:33.311Z,2.80
2019-06-27T19:56:03.376Z,2.30
2019-06-27T19:58:33.360Z,2.87
2019-06-27T20:01:03.495Z,3.00
2019-06-27T20:03:33.601Z,2.30
2019-06-27T20:06:03.078Z,2.60
2019-06-27T20:08:32.596Z,2.60
2019-06-27T20:11:02.191Z,2.53
2019-06-27T20:13:31.711Z,2.27
2019-06-27T20:16:01.397Z,2.45
2019-06-27T20:18:31.098Z,2.80
2019-06-27T20:21:00.628Z,2.50
2019-06-27T20:23:30.160Z,2.10
2019-06-27T20:25:59.668Z,2.40
2019-06-27T20:28:29.286Z,2.70
2019-06-27T20:30:58.822Z,2.63
2019-06-27T20:33:28.367Z,3.10
2019-06-27T20:35:57.893Z,3.00
2019-06-27T20:38:34.924Z,2.60
2019-06-27T20:40:58.646Z,2.50
2019-06-27T20:43:28.213Z,2.80
2019-06-27T20:45:57.740Z,2.73
2019-06-27T20:48:27.240Z,3.00
2019-06-27T20:50:56.879Z,2.13
2019-06-27T20:53:26.347Z,3.12
2019-06-27T20:55:55.878Z,2.80
2019-06-27T20:58:25.365Z,2.50
2019-06-27T21:00:54.887Z,2.87
2019-06-27T21:03:24.457Z,2.20
2019-06-27T21:05:53.985Z,2.53
2019-06-27T21:08:23.666Z,2.77
2019-06-27T21:10:53.188Z,3.10
2019-06-27T21:13:22.700Z,2.50
2019-06-27T21:15:52.237Z,2.57
2019-06-27T21:18:21.746Z,2.47
2019-06-27T21:20:51.391Z,2.63
2019-06-27T21:23:20.959Z,2.83
2019-06-27T21:25:50.531Z,2.53
2019-06-27T21:28:20.012Z,2.63
2019-06-27T21:30:49.605Z,2.83
2019-06-27T21:33:19.094Z,2.90
2019-06-27T21:35:48.626Z,2.53
2019-06-27T21:38:18.114Z,2.65
2019-06-27T21:40:47.680Z,2.77
2019-06-27T21:43:17.164Z,3.00
2019-06-27T21:45:46.787Z,3.10
2019-06-27T21:48:16.377Z,2.80
2019-06-27T21:50:45.902Z,2.30
2019-06-27T21:53:15.439Z,3.37
2019-06-27T21:55:45.020Z,2.40
2019-06-27T21:58:14.502Z,2.57
2019-06-27T22:00:44.418Z,2.63
2019-06-27T22:03:15.638Z,2.90
2019-06-27T22:05:45.168Z,2.70
2019-06-27T22:08:14.840Z,1.80
2019-06-27T22:10:44.357Z,2.63
2019-06-27T22:13:13.944Z,1.90
2019-06-27T22:15:43.472Z,2.58
2019-06-27T22:18:13.011Z,2.12
2019-06-27T22:20:42.543Z,2.40
2019-06-27T22:23:12.099Z,2.30
2019-06-27T22:25:41.619Z,2.33
2019-06-27T22:28:11.107Z,2.13
2019-06-27T22:30:40.646Z,2.37
2019-06-27T22:33:10.170Z,2.37
2019-06-27T22:35:39.664Z,2.17
2019-06-27T22:38:26.908Z,2.17
2019-06-27T22:41:14.487Z,2.63
2019-06-27T22:44:02.163Z,2.60
2019-06-27T22:46:49.292Z,2.50
2019-06-27T22:49:18.198Z,2.70
2019-06-27T22:52:09.575Z,2.70
2019-06-27T22:54:41.023Z,2.20
2019-06-27T22:57:10.908Z,1.87
2019-06-27T22:59:40.457Z,2.50
2019-06-27T23:02:09.990Z,2.57
2019-06-27T23:04:39.614Z,2.23
2019-06-27T23:07:09.142Z,2.70
2019-06-27T23:09:38.637Z,2.80
2019-06-27T23:12:08.168Z,2.20
2019-06-27T23:14:38.636Z,2.40
2019-06-27T23:17:08.251Z,3.10
2019-06-27T23:19:38.829Z,2.47
2019-06-27T23:22:08.618Z,2.65
2019-06-27T23:24:38.117Z,3.00
2019-06-27T23:27:07.631Z,2.60
2019-06-27T23:29:37.156Z,2.00
2019-06-27T23:32:06.691Z,2.33
2019-06-27T23:34:36.494Z,2.77
2019-06-27T23:37:06.535Z,2.50
2019-06-27T23:39:36.556Z,2.90
2019-06-27T23:42:06.554Z,2.37
2019-06-27T23:44:36.582Z,2.80
2019-06-27T23:47:06.519Z,5.78
2019-06-27T23:49:37.276Z,2.60
2019-06-27T23:52:06.968Z,2.97
2019-06-27T23:54:36.603Z,3.02
2019-06-27T23:57:06.575Z,2.67
2019-06-27T23:59:36.717Z,2.00
